sensor_id;sensor_type;location;lat;lon;timestamp;pressure;altitude;pressure_sealevel;temperature
81657;BMP280;71067;51.482;-0.580;2024-03-25T00:01:38;100676.47;;;8.21
81657;BMP280;71067;51.482;-0.580;2024-03-25T00:04:03;100662.91;;;8.19
81657;BMP280;71067;51.482;-0.580;2024-03-25T00:06:29;100661.09;;;8.29
81657;BMP280;71067;51.482;-0.580;2024-03-25T00:08:59;100656.22;;;8.26
81657;BMP280;71067;51.482;-0.580;2024-03-25T00:11:24;100655.38;;;8.35
81657;BMP280;71067;51.482;-0.580;2024-03-25T00:13:49;100649.22;;;8.36
81657;BMP280;71067;51.482;-0.580;2024-03-25T00:16:15;100642.50;;;8.35
81657;BMP280;71067;51.482;-0.580;2024-03-25T00:18:40;100651.53;;;8.39
81657;BMP280;71067;51.482;-0.580;2024-03-25T00:21:05;100637.34;;;8.35
81657;BMP280;71067;51.482;-0.580;2024-03-25T00:23:31;100625.66;;;8.31
81657;BMP280;71067;51.482;-0.580;2024-03-25T00:25:56;100627.50;;;8.38
81657;BMP280;71067;51.482;-0.580;2024-03-25T00:28:21;100611.28;;;8.28
81657;BMP280;71067;51.482;-0.580;2024-03-25T00:30:47;100634.81;;;8.43
81657;BMP280;71067;51.482;-0.580;2024-03-25T00:33:12;100626.84;;;8.36
81657;BMP280;71067;51.482;-0.580;2024-03-25T00:35:38;100623.97;;;8.39
81657;BMP280;71067;51.482;-0.580;2024-03-25T00:38:03;100622.06;;;8.41
81657;BMP280;71067;51.482;-0.580;2024-03-25T00:40:29;100613.38;;;8.42
81657;BMP280;71067;51.482;-0.580;2024-03-25T00:42:55;100599.59;;;8.34
81657;BMP280;71067;51.482;-0.580;2024-03-25T00:45:20;100616.91;;;8.41
81657;BMP280;71067;51.482;-0.580;2024-03-25T00:47:45;100573.72;;;8.26
81657;BMP280;71067;51.482;-0.580;2024-03-25T00:50:11;100602.53;;;8.39
81657;BMP280;71067;51.482;-0.580;2024-03-25T00:52:36;100587.13;;;8.29
81657;BMP280;71067;51.482;-0.580;2024-03-25T00:55:02;100596.19;;;8.33
81657;BMP280;71067;51.482;-0.580;2024-03-25T00:57:28;100590.22;;;8.33
81657;BMP280;71067;51.482;-0.580;2024-03-25T00:59:54;100590.91;;;8.35
81657;BMP280;71067;51.482;-0.580;2024-03-25T01:02:20;100580.88;;;8.32
81657;BMP280;71067;51.482;-0.580;2024-03-25T01:04:45;100582.47;;;8.33
81657;BMP280;71067;51.482;-0.580;2024-03-25T01:07:10;100574.63;;;8.34
81657;BMP280;71067;51.482;-0.580;2024-03-25T01:09:36;100572.16;;;8.33
81657;BMP280;71067;51.482;-0.580;2024-03-25T01:12:01;100574.44;;;8.36
81657;BMP280;71067;51.482;-0.580;2024-03-25T01:14:26;100554.56;;;8.28
81657;BMP280;71067;51.482;-0.580;2024-03-25T01:16:52;100566.69;;;8.36
81657;BMP280;71067;51.482;-0.580;2024-03-25T01:19:17;100567.00;;;8.33
81657;BMP280;71067;51.482;-0.580;2024-03-25T01:21:43;100543.34;;;8.20
81657;BMP280;71067;51.482;-0.580;2024-03-25T01:24:09;100558.22;;;8.26
81657;BMP280;71067;51.482;-0.580;2024-03-25T01:26:34;100560.38;;;8.30
81657;BMP280;71067;51.482;-0.580;2024-03-25T01:29:00;100540.94;;;8.18
81657;BMP280;71067;51.482;-0.580;2024-03-25T01:31:25;100558.22;;;8.26
81657;BMP280;71067;51.482;-0.580;2024-03-25T01:33:50;100539.09;;;8.11
81657;BMP280;71067;51.482;-0.580;2024-03-25T01:36:16;100569.22;;;8.28
81657;BMP280;71067;51.482;-0.580;2024-03-25T01:38:44;100549.06;;;8.23
81657;BMP280;71067;51.482;-0.580;2024-03-25T01:41:10;100557.66;;;8.32
81657;BMP280;71067;51.482;-0.580;2024-03-25T01:43:38;100542.59;;;8.27
81657;BMP280;71067;51.482;-0.580;2024-03-25T01:46:04;100536.34;;;8.30
81657;BMP280;71067;51.482;-0.580;2024-03-25T01:48:30;100532.00;;;8.30
81657;BMP280;71067;51.482;-0.580;2024-03-25T01:50:56;100521.97;;;8.27
81657;BMP280;71067;51.482;-0.580;2024-03-25T01:53:22;100517.63;;;8.28
81657;BMP280;71067;51.482;-0.580;2024-03-25T01:55:49;100513.78;;;8.24
81657;BMP280;71067;51.482;-0.580;2024-03-25T01:58:14;100482.09;;;8.14
81657;BMP280;71067;51.482;-0.580;2024-03-25T02:00:40;100499.25;;;8.23
81657;BMP280;71067;51.482;-0.580;2024-03-25T02:03:06;100497.31;;;8.25
81657;BMP280;71067;51.482;-0.580;2024-03-25T02:05:34;100488.94;;;8.23
81657;BMP280;71067;51.482;-0.580;2024-03-25T02:07:59;100460.56;;;8.05
81657;BMP280;71067;51.482;-0.580;2024-03-25T02:10:25;100470.16;;;8.13
81657;BMP280;71067;51.482;-0.580;2024-03-25T02:12:51;100484.44;;;8.25
81657;BMP280;71067;51.482;-0.580;2024-03-25T02:15:17;100472.56;;;8.14
81657;BMP280;71067;51.482;-0.580;2024-03-25T02:17:42;100484.44;;;8.25
81657;BMP280;71067;51.482;-0.580;2024-03-25T02:20:08;100488.63;;;8.26
81657;BMP280;71067;51.482;-0.580;2024-03-25T02:22:37;100464.25;;;8.20
81657;BMP280;71067;51.482;-0.580;2024-03-25T02:25:08;100462.84;;;8.26
81657;BMP280;71067;51.482;-0.580;2024-03-25T02:27:34;100452.31;;;8.19
81657;BMP280;71067;51.482;-0.580;2024-03-25T02:32:29;100452.84;;;8.23
81657;BMP280;71067;51.482;-0.580;2024-03-25T02:34:56;100459.09;;;8.20
81657;BMP280;71067;51.482;-0.580;2024-03-25T02:37:21;100441.28;;;8.09
81657;BMP280;71067;51.482;-0.580;2024-03-25T02:39:47;100445.63;;;8.09
81657;BMP280;71067;51.482;-0.580;2024-03-25T02:42:13;100449.28;;;8.06
81657;BMP280;71067;51.482;-0.580;2024-03-25T02:44:38;100423.75;;;7.95
81657;BMP280;71067;51.482;-0.580;2024-03-25T02:47:06;100435.78;;;8.04
81657;BMP280;71067;51.482;-0.580;2024-03-25T02:49:31;100434.78;;;8.05
81657;BMP280;71067;51.482;-0.580;2024-03-25T02:51:57;100428.91;;;8.13
81657;BMP280;71067;51.482;-0.580;2024-03-25T02:54:22;100424.38;;;8.15
81657;BMP280;71067;51.482;-0.580;2024-03-25T02:56:47;100398.22;;;8.02
81657;BMP280;71067;51.482;-0.580;2024-03-25T02:59:12;100403.59;;;8.08
81657;BMP280;71067;51.482;-0.580;2024-03-25T03:01:38;100402.19;;;8.14
81657;BMP280;71067;51.482;-0.580;2024-03-25T03:04:03;100399.09;;;8.10
81657;BMP280;71067;51.482;-0.580;2024-03-25T03:06:29;100400.25;;;8.16
81657;BMP280;71067;51.482;-0.580;2024-03-25T03:08:54;100373.25;;;8.02
81657;BMP280;71067;51.482;-0.580;2024-03-25T03:11:19;100392.22;;;8.19
81657;BMP280;71067;51.482;-0.580;2024-03-25T03:13:45;100392.88;;;8.21
81657;BMP280;71067;51.482;-0.580;2024-03-25T03:16:10;100383.38;;;8.21
81657;BMP280;71067;51.482;-0.580;2024-03-25T03:18:35;100357.47;;;8.05
81657;BMP280;71067;51.482;-0.580;2024-03-25T03:21:01;100371.59;;;8.19
81657;BMP280;71067;51.482;-0.580;2024-03-25T03:23:26;100380.94;;;8.20
81657;BMP280;71067;51.482;-0.580;2024-03-25T03:25:51;100371.88;;;8.16
81657;BMP280;71067;51.482;-0.580;2024-03-25T03:28:17;100360.13;;;8.13
81657;BMP280;71067;51.482;-0.580;2024-03-25T03:30:42;100359.94;;;8.15
81657;BMP280;71067;51.482;-0.580;2024-03-25T03:33:08;100355.31;;;8.18
81657;BMP280;71067;51.482;-0.580;2024-03-25T03:35:34;100356.13;;;8.19
81657;BMP280;71067;51.482;-0.580;2024-03-25T03:37:59;100328.91;;;7.99
81657;BMP280;71067;51.482;-0.580;2024-03-25T03:40:24;100326.06;;;8.02
81657;BMP280;71067;51.482;-0.580;2024-03-25T03:42:50;100339.97;;;8.17
81657;BMP280;71067;51.482;-0.580;2024-03-25T03:45:15;100334.16;;;8.15
81657;BMP280;71067;51.482;-0.580;2024-03-25T03:47:41;100340.94;;;8.16
81657;BMP280;71067;51.482;-0.580;2024-03-25T03:50:06;100341.28;;;8.13
81657;BMP280;71067;51.482;-0.580;2024-03-25T03:52:33;100328.66;;;8.10
81657;BMP280;71067;51.482;-0.580;2024-03-25T03:54:58;100338.97;;;8.10
81657;BMP280;71067;51.482;-0.580;2024-03-25T03:57:23;100337.66;;;8.06
81657;BMP280;71067;51.482;-0.580;2024-03-25T03:59:50;100324.44;;;8.01
81657;BMP280;71067;51.482;-0.580;2024-03-25T04:02:16;100331.06;;;8.03
81657;BMP280;71067;51.482;-0.580;2024-03-25T04:04:41;100325.22;;;8.01
81657;BMP280;71067;51.482;-0.580;2024-03-25T04:07:06;100326.34;;;7.99
81657;BMP280;71067;51.482;-0.580;2024-03-25T04:09:32;100318.44;;;7.92
81657;BMP280;71067;51.482;-0.580;2024-03-25T04:11:58;100302.97;;;7.92
81657;BMP280;71067;51.482;-0.580;2024-03-25T04:14:23;100308.97;;;8.01
81657;BMP280;71067;51.482;-0.580;2024-03-25T04:16:48;100308.97;;;8.01
81657;BMP280;71067;51.482;-0.580;2024-03-25T04:19:14;100310.59;;;8.02
81657;BMP280;71067;51.482;-0.580;2024-03-25T04:21:39;100297.34;;;7.97
81657;BMP280;71067;51.482;-0.580;2024-03-25T04:24:05;100282.63;;;7.89
81657;BMP280;71067;51.482;-0.580;2024-03-25T04:26:31;100309.94;;;8.00
81657;BMP280;71067;51.482;-0.580;2024-03-25T04:28:56;100306.53;;;7.99
81657;BMP280;71067;51.482;-0.580;2024-03-25T04:31:22;100271.97;;;7.84
81657;BMP280;71067;51.482;-0.580;2024-03-25T04:33:47;100291.06;;;7.99
81657;BMP280;71067;51.482;-0.580;2024-03-25T04:36:13;100283.50;;;7.98
81657;BMP280;71067;51.482;-0.580;2024-03-25T04:38:38;100274.31;;;7.95
81657;BMP280;71067;51.482;-0.580;2024-03-25T04:41:04;100276.13;;;8.03
81657;BMP280;71067;51.482;-0.580;2024-03-25T04:43:29;100268.75;;;8.08
81657;BMP280;71067;51.482;-0.580;2024-03-25T04:45:55;100271.69;;;8.13
81657;BMP280;71067;51.482;-0.580;2024-03-25T04:48:20;100256.78;;;8.07
81657;BMP280;71067;51.482;-0.580;2024-03-25T04:50:46;100276.50;;;8.16
81657;BMP280;71067;51.482;-0.580;2024-03-25T04:53:11;100265.34;;;8.07
81657;BMP280;71067;51.482;-0.580;2024-03-25T04:55:37;100257.84;;;8.14
81657;BMP280;71067;51.482;-0.580;2024-03-25T04:58:02;100267.00;;;8.16
81657;BMP280;71067;51.482;-0.580;2024-03-25T05:00:27;100267.50;;;8.20
81657;BMP280;71067;51.482;-0.580;2024-03-25T05:02:53;100243.59;;;8.02
81657;BMP280;71067;51.482;-0.580;2024-03-25T05:05:18;100242.66;;;8.11
81657;BMP280;71067;51.482;-0.580;2024-03-25T05:07:44;100254.13;;;8.16
81657;BMP280;71067;51.482;-0.580;2024-03-25T05:10:09;100266.25;;;8.24
81657;BMP280;71067;51.482;-0.580;2024-03-25T05:12:35;100254.97;;;8.25
81657;BMP280;71067;51.482;-0.580;2024-03-25T05:15:00;100260.78;;;8.27
81657;BMP280;71067;51.482;-0.580;2024-03-25T05:17:26;100257.88;;;8.30
81657;BMP280;71067;51.482;-0.580;2024-03-25T05:19:51;100251.78;;;8.31
81657;BMP280;71067;51.482;-0.580;2024-03-25T05:22:16;100249.19;;;8.31
81657;BMP280;71067;51.482;-0.580;2024-03-25T05:24:42;100227.25;;;8.19
81657;BMP280;71067;51.482;-0.580;2024-03-25T05:27:07;100228.47;;;8.15
81657;BMP280;71067;51.482;-0.580;2024-03-25T05:29:32;100244.00;;;8.23
81657;BMP280;71067;51.482;-0.580;2024-03-25T05:31:59;100248.69;;;8.27
81657;BMP280;71067;51.482;-0.580;2024-03-25T05:34:26;100217.38;;;8.14
81657;BMP280;71067;51.482;-0.580;2024-03-25T05:36:51;100245.50;;;8.33
81657;BMP280;71067;51.482;-0.580;2024-03-25T05:39:17;100245.38;;;8.35
81657;BMP280;71067;51.482;-0.580;2024-03-25T05:41:42;100227.59;;;8.24
81657;BMP280;71067;51.482;-0.580;2024-03-25T05:44:08;100227.91;;;8.29
81657;BMP280;71067;51.482;-0.580;2024-03-25T05:46:33;100229.53;;;8.38
81657;BMP280;71067;51.482;-0.580;2024-03-25T05:49:05;100231.81;;;8.41
81657;BMP280;71067;51.482;-0.580;2024-03-25T05:51:31;100213.28;;;8.37
81657;BMP280;71067;51.482;-0.580;2024-03-25T05:53:58;100222.97;;;8.43
81657;BMP280;71067;51.482;-0.580;2024-03-25T05:56:23;100217.81;;;8.43
81657;BMP280;71067;51.482;-0.580;2024-03-25T05:58:52;100208.31;;;8.44
81657;BMP280;71067;51.482;-0.580;2024-03-25T06:01:18;100203.31;;;8.42
81657;BMP280;71067;51.482;-0.580;2024-03-25T06:03:43;100212.84;;;8.50
81657;BMP280;71067;51.482;-0.580;2024-03-25T06:06:09;100193.97;;;8.41
81657;BMP280;71067;51.482;-0.580;2024-03-25T06:08:35;100208.34;;;8.52
81657;BMP280;71067;51.482;-0.580;2024-03-25T06:11:02;100201.25;;;8.54
81657;BMP280;71067;51.482;-0.580;2024-03-25T06:13:27;100180.13;;;8.42
81657;BMP280;71067;51.482;-0.580;2024-03-25T06:15:53;100178.47;;;8.41
81657;BMP280;71067;51.482;-0.580;2024-03-25T06:18:18;100200.44;;;8.62
81657;BMP280;71067;51.482;-0.580;2024-03-25T06:20:43;100201.56;;;8.59
81657;BMP280;71067;51.482;-0.580;2024-03-25T06:23:09;100182.38;;;8.54
81657;BMP280;71067;51.482;-0.580;2024-03-25T06:25:34;100190.13;;;8.62
81657;BMP280;71067;51.482;-0.580;2024-03-25T06:28:01;100183.19;;;8.54
81657;BMP280;71067;51.482;-0.580;2024-03-25T06:30:26;100174.34;;;8.65
81657;BMP280;71067;51.482;-0.580;2024-03-25T06:33:10;100179.69;;;8.71
81657;BMP280;71067;51.482;-0.580;2024-03-25T06:35:54;100169.50;;;8.70
81657;BMP280;71067;51.482;-0.580;2024-03-25T06:38:19;100172.41;;;8.75
81657;BMP280;71067;51.482;-0.580;2024-03-25T06:40:47;100166.78;;;8.79
81657;BMP280;71067;51.482;-0.580;2024-03-25T06:43:13;100157.94;;;8.82
81657;BMP280;71067;51.482;-0.580;2024-03-25T06:45:39;100145.16;;;8.72
81657;BMP280;71067;51.482;-0.580;2024-03-25T06:48:05;100128.22;;;8.62
81657;BMP280;71067;51.482;-0.580;2024-03-25T06:50:30;100166.78;;;8.87
81657;BMP280;71067;51.482;-0.580;2024-03-25T06:52:55;100165.81;;;8.88
81657;BMP280;71067;51.482;-0.580;2024-03-25T06:55:21;100160.94;;;8.85
81657;BMP280;71067;51.482;-0.580;2024-03-25T06:57:50;100162.91;;;8.91
81657;BMP280;71067;51.482;-0.580;2024-03-25T07:00:15;100159.38;;;8.92
81657;BMP280;71067;51.482;-0.580;2024-03-25T07:02:41;100155.19;;;8.91
81657;BMP280;71067;51.482;-0.580;2024-03-25T07:05:06;100160.34;;;8.91
81657;BMP280;71067;51.482;-0.580;2024-03-25T07:07:32;100165.31;;;9.01
81657;BMP280;71067;51.482;-0.580;2024-03-25T07:09:59;100164.19;;;9.03
81657;BMP280;71067;51.482;-0.580;2024-03-25T07:12:24;100161.94;;;9.08
81657;BMP280;71067;51.482;-0.580;2024-03-25T07:14:49;100161.78;;;9.10
81657;BMP280;71067;51.482;-0.580;2024-03-25T07:17:15;100140.19;;;9.03
81657;BMP280;71067;51.482;-0.580;2024-03-25T07:19:40;100147.25;;;9.09
81657;BMP280;71067;51.482;-0.580;2024-03-25T07:22:05;100146.94;;;9.12
81657;BMP280;71067;51.482;-0.580;2024-03-25T07:24:32;100144.19;;;9.13
81657;BMP280;71067;51.482;-0.580;2024-03-25T07:26:57;100150.63;;;9.17
81657;BMP280;71067;51.482;-0.580;2024-03-25T07:29:22;100152.09;;;9.20
81657;BMP280;71067;51.482;-0.580;2024-03-25T07:31:47;100144.66;;;9.17
81657;BMP280;71067;51.482;-0.580;2024-03-25T07:34:13;100147.56;;;9.22
81657;BMP280;71067;51.482;-0.580;2024-03-25T07:36:38;100146.41;;;9.24
81657;BMP280;71067;51.482;-0.580;2024-03-25T07:39:04;100128.03;;;9.19
81657;BMP280;71067;51.482;-0.580;2024-03-25T07:41:31;100142.03;;;9.33
81657;BMP280;71067;51.482;-0.580;2024-03-25T07:43:56;100149.00;;;9.41
81657;BMP280;71067;51.482;-0.580;2024-03-25T07:46:22;100142.53;;;9.45
81657;BMP280;71067;51.482;-0.580;2024-03-25T07:48:47;100143.97;;;9.47
81657;BMP280;71067;51.482;-0.580;2024-03-25T07:51:12;100121.06;;;9.36
81657;BMP280;71067;51.482;-0.580;2024-03-25T07:53:37;100141.81;;;9.51
81657;BMP280;71067;51.482;-0.580;2024-03-25T07:56:03;100122.31;;;9.48
81657;BMP280;71067;51.482;-0.580;2024-03-25T07:58:30;100122.28;;;9.56
81657;BMP280;71067;51.482;-0.580;2024-03-25T08:00:55;100128.88;;;9.59
81657;BMP280;71067;51.482;-0.580;2024-03-25T08:03:21;100118.13;;;9.55
81657;BMP280;71067;51.482;-0.580;2024-03-25T08:05:46;100113.88;;;9.62
81657;BMP280;71067;51.482;-0.580;2024-03-25T08:08:11;100118.38;;;9.68
81657;BMP280;71067;51.482;-0.580;2024-03-25T08:10:37;100104.03;;;9.66
81657;BMP280;71067;51.482;-0.580;2024-03-25T08:13:03;100097.06;;;9.66
81657;BMP280;71067;51.482;-0.580;2024-03-25T08:15:28;100105.28;;;9.70
81657;BMP280;71067;51.482;-0.580;2024-03-25T08:17:54;100085.78;;;9.67
81657;BMP280;71067;51.482;-0.580;2024-03-25T08:20:19;100103.63;;;9.77
81657;BMP280;71067;51.482;-0.580;2024-03-25T08:22:44;100104.75;;;9.82
81657;BMP280;71067;51.482;-0.580;2024-03-25T08:25:10;100096.63;;;9.85
81657;BMP280;71067;51.482;-0.580;2024-03-25T08:27:36;100104.88;;;9.89
81657;BMP280;71067;51.482;-0.580;2024-03-25T08:30:01;100081.34;;;9.84
81657;BMP280;71067;51.482;-0.580;2024-03-25T08:32:26;100082.75;;;9.86
81657;BMP280;71067;51.482;-0.580;2024-03-25T08:34:52;100085.47;;;9.93
81657;BMP280;71067;51.482;-0.580;2024-03-25T08:37:17;100075.47;;;9.90
81657;BMP280;71067;51.482;-0.580;2024-03-25T08:39:42;100079.78;;;9.97
81657;BMP280;71067;51.482;-0.580;2024-03-25T08:42:08;100085.69;;;10.06
81657;BMP280;71067;51.482;-0.580;2024-03-25T08:44:33;100079.56;;;10.07
81657;BMP280;71067;51.482;-0.580;2024-03-25T08:46:58;100045.25;;;9.90
81657;BMP280;71067;51.482;-0.580;2024-03-25T08:49:24;100065.84;;;10.06
81657;BMP280;71067;51.482;-0.580;2024-03-25T08:51:49;100064.50;;;10.10
81657;BMP280;71067;51.482;-0.580;2024-03-25T08:54:14;100066.59;;;10.15
81657;BMP280;71067;51.482;-0.580;2024-03-25T08:56:39;100068.03;;;10.18
81657;BMP280;71067;51.482;-0.580;2024-03-25T08:59:05;100035.94;;;10.04
81657;BMP280;71067;51.482;-0.580;2024-03-25T09:01:31;100048.81;;;10.12
81657;BMP280;71067;51.482;-0.580;2024-03-25T09:03:56;100040.16;;;10.05
81657;BMP280;71067;51.482;-0.580;2024-03-25T09:06:22;100068.84;;;10.18
81657;BMP280;71067;51.482;-0.580;2024-03-25T09:08:47;100052.53;;;10.18
81657;BMP280;71067;51.482;-0.580;2024-03-25T09:11:31;100044.75;;;10.18
81657;BMP280;71067;51.482;-0.580;2024-03-25T09:13:57;100064.72;;;10.24
81657;BMP280;71067;51.482;-0.580;2024-03-25T09:16:22;100066.88;;;10.20
81657;BMP280;71067;51.482;-0.580;2024-03-25T09:18:48;100056.06;;;10.16
81657;BMP280;71067;51.482;-0.580;2024-03-25T09:21:13;100059.47;;;10.17
81657;BMP280;71067;51.482;-0.580;2024-03-25T09:23:39;100041.13;;;10.04
81657;BMP280;71067;51.482;-0.580;2024-03-25T09:26:04;100048.50;;;10.15
81657;BMP280;71067;51.482;-0.580;2024-03-25T09:28:30;100030.78;;;10.04
81657;BMP280;71067;51.482;-0.580;2024-03-25T09:30:55;100021.31;;;9.96
81657;BMP280;71067;51.482;-0.580;2024-03-25T09:33:20;100052.09;;;10.06
81657;BMP280;71067;51.482;-0.580;2024-03-25T09:35:47;100050.31;;;10.06
81657;BMP280;71067;51.482;-0.580;2024-03-25T09:38:12;100030.88;;;9.88
81657;BMP280;71067;51.482;-0.580;2024-03-25T09:40:41;100044.66;;;10.03
81657;BMP280;71067;51.482;-0.580;2024-03-25T09:43:17;100041.13;;;10.04
81657;BMP280;71067;51.482;-0.580;2024-03-25T09:45:47;100031.13;;;10.01
81657;BMP280;71067;51.482;-0.580;2024-03-25T09:48:15;100015.69;;;9.93
81657;BMP280;71067;51.482;-0.580;2024-03-25T09:50:41;100019.69;;;9.95
81657;BMP280;71067;51.482;-0.580;2024-03-25T09:53:06;100001.75;;;9.94
81657;BMP280;71067;51.482;-0.580;2024-03-25T09:55:32;100030.53;;;10.13
81657;BMP280;71067;51.482;-0.580;2024-03-25T09:57:58;100024.56;;;10.13
81657;BMP280;71067;51.482;-0.580;2024-03-25T10:00:23;100021.34;;;10.11
81657;BMP280;71067;51.482;-0.580;2024-03-25T10:02:49;100034.19;;;10.19
81657;BMP280;71067;51.482;-0.580;2024-03-25T10:05:14;100017.59;;;10.13
81657;BMP280;71067;51.482;-0.580;2024-03-25T10:07:40;100022.09;;;10.19
81657;BMP280;71067;51.482;-0.580;2024-03-25T10:10:05;100017.41;;;10.23
81657;BMP280;71067;51.482;-0.580;2024-03-25T10:12:32;100019.00;;;10.24
81657;BMP280;71067;51.482;-0.580;2024-03-25T10:14:57;100019.25;;;10.29
81657;BMP280;71067;51.482;-0.580;2024-03-25T10:17:22;100001.22;;;10.21
81657;BMP280;71067;51.482;-0.580;2024-03-25T10:19:48;100016.25;;;10.26
81657;BMP280;71067;51.482;-0.580;2024-03-25T10:22:13;100025.00;;;10.39
81657;BMP280;71067;51.482;-0.580;2024-03-25T10:24:43;100016.28;;;10.40
81657;BMP280;71067;51.482;-0.580;2024-03-25T10:27:21;100011.72;;;10.42
81657;BMP280;71067;51.482;-0.580;2024-03-25T10:29:54;100018.78;;;10.48
81657;BMP280;71067;51.482;-0.580;2024-03-25T10:32:22;100013.13;;;10.45
81657;BMP280;71067;51.482;-0.580;2024-03-25T10:34:53;100021.56;;;10.47
81657;BMP280;71067;51.482;-0.580;2024-03-25T10:37:19;100018.44;;;10.51
81657;BMP280;71067;51.482;-0.580;2024-03-25T10:39:48;100023.00;;;10.49
81657;BMP280;71067;51.482;-0.580;2024-03-25T10:42:16;100003.00;;;10.43
81657;BMP280;71067;51.482;-0.580;2024-03-25T10:44:43;100003.88;;;10.50
81657;BMP280;71067;51.482;-0.580;2024-03-25T10:47:13;100007.00;;;10.60
81657;BMP280;71067;51.482;-0.580;2024-03-25T10:49:55;99999.38;;;10.67
81657;BMP280;71067;51.482;-0.580;2024-03-25T10:52:21;99985.25;;;10.69
81657;BMP280;71067;51.482;-0.580;2024-03-25T10:54:49;99986.34;;;10.75
81657;BMP280;71067;51.482;-0.580;2024-03-25T10:57:16;99986.75;;;10.78
81657;BMP280;71067;51.482;-0.580;2024-03-25T10:59:45;99974.63;;;10.79
81657;BMP280;71067;51.482;-0.580;2024-03-25T11:02:11;99960.88;;;10.78
81657;BMP280;71067;51.482;-0.580;2024-03-25T11:04:37;99932.06;;;10.67
81657;BMP280;71067;51.482;-0.580;2024-03-25T11:07:12;99953.91;;;10.93
81657;BMP280;71067;51.482;-0.580;2024-03-25T11:09:39;99940.97;;;10.93
81657;BMP280;71067;51.482;-0.580;2024-03-25T11:12:05;99943.47;;;11.01
81657;BMP280;71067;51.482;-0.580;2024-03-25T11:14:31;99935.22;;;11.13
81657;BMP280;71067;51.482;-0.580;2024-03-25T11:17:00;99952.13;;;11.30
81657;BMP280;71067;51.482;-0.580;2024-03-25T11:19:27;99945.16;;;11.30
81657;BMP280;71067;51.482;-0.580;2024-03-25T11:21:53;99939.25;;;11.36
81657;BMP280;71067;51.482;-0.580;2024-03-25T11:24:29;99942.31;;;11.46
81657;BMP280;71067;51.482;-0.580;2024-03-25T11:26:55;99913.53;;;11.35
81657;BMP280;71067;51.482;-0.580;2024-03-25T11:29:20;99915.94;;;11.36
81657;BMP280;71067;51.482;-0.580;2024-03-25T11:31:48;99912.22;;;11.45
81657;BMP280;71067;51.482;-0.580;2024-03-25T11:34:14;99906.84;;;11.47
81657;BMP280;71067;51.482;-0.580;2024-03-25T11:36:39;99869.38;;;11.43
81657;BMP280;71067;51.482;-0.580;2024-03-25T11:39:05;99910.16;;;11.83
81657;BMP280;71067;51.482;-0.580;2024-03-25T11:41:43;99890.03;;;11.85
81657;BMP280;71067;51.482;-0.580;2024-03-25T11:44:09;99893.84;;;11.89
81657;BMP280;71067;51.482;-0.580;2024-03-25T11:46:39;99888.09;;;11.93
81657;BMP280;71067;51.482;-0.580;2024-03-25T11:49:14;99901.88;;;11.94
81657;BMP280;71067;51.482;-0.580;2024-03-25T11:51:40;99883.47;;;11.89
81657;BMP280;71067;51.482;-0.580;2024-03-25T11:54:07;99860.88;;;11.83
81657;BMP280;71067;51.482;-0.580;2024-03-25T11:56:32;99878.41;;;12.02
81657;BMP280;71067;51.482;-0.580;2024-03-25T11:59:00;99874.59;;;12.05
81657;BMP280;71067;51.482;-0.580;2024-03-25T12:01:27;99856.03;;;12.01
81657;BMP280;71067;51.482;-0.580;2024-03-25T12:03:52;99849.47;;;12.05
81657;BMP280;71067;51.482;-0.580;2024-03-25T12:06:17;99859.72;;;12.20
81657;BMP280;71067;51.482;-0.580;2024-03-25T12:08:43;99851.16;;;12.26
81657;BMP280;71067;51.482;-0.580;2024-03-25T12:11:27;99840.78;;;12.26
81657;BMP280;71067;51.482;-0.580;2024-03-25T12:13:53;99845.22;;;12.32
81657;BMP280;71067;51.482;-0.580;2024-03-25T12:16:18;99836.63;;;12.31
81657;BMP280;71067;51.482;-0.580;2024-03-25T12:18:44;99846.47;;;12.42
81657;BMP280;71067;51.482;-0.580;2024-03-25T12:21:10;99831.91;;;12.48
81657;BMP280;71067;51.482;-0.580;2024-03-25T12:23:35;99820.47;;;12.36
81657;BMP280;71067;51.482;-0.580;2024-03-25T12:26:02;99825.50;;;12.44
81657;BMP280;71067;51.482;-0.580;2024-03-25T12:28:28;99825.50;;;12.44
81657;BMP280;71067;51.482;-0.580;2024-03-25T12:30:55;99820.72;;;12.47
81657;BMP280;71067;51.482;-0.580;2024-03-25T12:33:22;99814.94;;;12.52
81657;BMP280;71067;51.482;-0.580;2024-03-25T12:35:51;99803.00;;;12.57
81657;BMP280;71067;51.482;-0.580;2024-03-25T12:38:27;99798.81;;;12.69
81657;BMP280;71067;51.482;-0.580;2024-03-25T12:40:54;99797.84;;;12.70
81657;BMP280;71067;51.482;-0.580;2024-03-25T12:43:28;99780.84;;;12.68
81657;BMP280;71067;51.482;-0.580;2024-03-25T12:45:53;99791.84;;;12.76
81657;BMP280;71067;51.482;-0.580;2024-03-25T12:48:19;99768.25;;;12.71
81657;BMP280;71067;51.482;-0.580;2024-03-25T12:50:44;99775.47;;;12.82
81657;BMP280;71067;51.482;-0.580;2024-03-25T12:53:17;99772.88;;;12.82
81657;BMP280;71067;51.482;-0.580;2024-03-25T12:55:43;99762.28;;;12.77
81657;BMP280;71067;51.482;-0.580;2024-03-25T12:58:08;99743.31;;;12.70
81657;BMP280;71067;51.482;-0.580;2024-03-25T13:00:33;99769.66;;;12.80
81657;BMP280;71067;51.482;-0.580;2024-03-25T13:02:59;99773.69;;;12.76
81657;BMP280;71067;51.482;-0.580;2024-03-25T13:05:25;99763.28;;;12.76
81657;BMP280;71067;51.482;-0.580;2024-03-25T13:07:50;99722.50;;;12.57
81657;BMP280;71067;51.482;-0.580;2024-03-25T13:10:16;99746.88;;;12.69
81657;BMP280;71067;51.482;-0.580;2024-03-25T13:12:41;99735.50;;;12.70
81657;BMP280;71067;51.482;-0.580;2024-03-25T13:15:07;99728.88;;;12.61
81657;BMP280;71067;51.482;-0.580;2024-03-25T13:17:33;99731.50;;;12.74
81657;BMP280;71067;51.482;-0.580;2024-03-25T13:19:58;99748.88;;;12.80
81657;BMP280;71067;51.482;-0.580;2024-03-25T13:22:24;99744.69;;;12.79
81657;BMP280;71067;51.482;-0.580;2024-03-25T13:24:49;99730.72;;;12.80
81657;BMP280;71067;51.482;-0.580;2024-03-25T13:27:15;99740.31;;;12.86
81657;BMP280;71067;51.482;-0.580;2024-03-25T13:29:40;99705.53;;;12.74
81657;BMP280;71067;51.482;-0.580;2024-03-25T13:32:06;99726.94;;;12.96
81657;BMP280;71067;51.482;-0.580;2024-03-25T13:34:31;99713.72;;;12.84
81657;BMP280;71067;51.482;-0.580;2024-03-25T13:36:56;99718.91;;;12.91
81657;BMP280;71067;51.482;-0.580;2024-03-25T13:39:22;99728.13;;;13.00
81657;BMP280;71067;51.482;-0.580;2024-03-25T13:41:48;99725.53;;;13.00
81657;BMP280;71067;51.482;-0.580;2024-03-25T13:44:13;99707.94;;;12.95
81657;BMP280;71067;51.482;-0.580;2024-03-25T13:46:39;99699.97;;;12.97
81657;BMP280;71067;51.482;-0.580;2024-03-25T13:49:04;99708.31;;;13.06
81657;BMP280;71067;51.482;-0.580;2024-03-25T13:51:30;99714.31;;;13.06